Create Custom Reports and Graphics: Custom Report

Sesame

Current Conditions

12/1/22 10:15 PM (-08:00)
Updated Every 15 Minutes
Temp 21.8 °F   1.2
WindChill -41.6 °F   57.6
Daily Min Temp 19.6 °F   3.1
Daily Max Temp 24.4 °F   10.1
RH 88 %   16
Dew Pt 18.8 °F   3.6
Wet Bulb 20.9 °F   0.2
Barometric Press 29.85 inHg   0.10
Wind Dir N | 360 °
Yest MinT 21.7 °F
Yest MaxT 34.5 °F
Yest MaxGst 27.3 mph

Sesame Snow Study Site

Precip/Snow Report

12/1/22 10:15 PM (-08:00)
Updated Every 15 Minutes
M WE6AM 2.37 In
P WE6AM 2.37 In
Storm Snow 23 In
Month Precip M 2.37 In
Month Precip P 2.37 In
SnowDepth 45.8 in
Season Precip M 10.62 In
Season Precip P 9.16 In
Pillow SWE 4.71 In

Last 24 Hours

Sesame

15 Minute Data | America/Los_Angeles
as of 12/1/22 10:15 PM PST
Date & Time New Snow (in) M WE6AM (In) P WE6AM (In) Storm Snow (In) Month Precip M (In) Month Precip P (In) SnowDepth (in) Season Precip M (In) Season Precip P (In) Pillow SWE (In)
12/1/22 - 2215 - 2.37 2.37 23 2.37 2.37 45.8 10.62 9.16 4.71
12/1/22 - 2200 0.0 2.35 2.34 23 2.35 2.34 45.6 10.60 9.13 4.66
12/1/22 - 2145 18.8 2.33 2.31 22 2.33 2.31 45.4 10.58 9.10 4.66
12/1/22 - 2130 18.8 2.32 2.26 22 2.32 2.26 45.0 10.57 9.05 4.61
12/1/22 - 2115 18.8 2.28 2.21 22 2.28 2.21 44.5 10.53 9.00 4.61
12/1/22 - 2100 18.7 2.27 2.16 21 2.27 2.16 44.3 10.52 8.96 4.46
12/1/22 - 2045 18.4 2.23 2.12 21 2.23 2.12 43.2 10.48 8.91 4.41
12/1/22 - 2030 18.8 2.23 2.07 20 2.23 2.07 43.2 10.48 8.86 4.32
12/1/22 - 2015 18.5 2.19 2.02 20 2.19 2.02 42.6 10.44 8.82 4.26
12/1/22 - 2000 17.9 2.16 1.98 19 2.16 1.98 42.1 10.41 8.77 4.27
12/1/22 - 1945 17.3 2.16 1.93 19 2.16 1.93 41.7 10.41 8.73 4.27
12/1/22 - 1930 16.9 2.03 1.88 18 2.03 1.88 41.5 10.28 8.68 4.22
12/1/22 - 1915 16.4 1.94 1.83 18 1.94 1.83 40.6 10.19 8.62 4.12
12/1/22 - 1900 15.8 1.94 1.78 17 1.94 1.78 40.1 10.19 8.58 4.07
12/1/22 - 1845 15.3 1.90 1.73 17 1.90 1.73 39.6 10.15 8.52 3.92
12/1/22 - 1830 14.8 1.80 1.66 16 1.80 1.66 38.8 10.05 8.45 4.02
12/1/22 - 1815 14.4 1.67 1.61 16 1.67 1.61 38.8 9.92 8.40 3.87
12/1/22 - 1800 13.9 1.62 1.56 15 1.62 1.56 38.0 9.87 8.36 3.82
12/1/22 - 1745 13.4 1.62 1.51 14 1.62 1.51 37.7 9.87 8.30 3.92
12/1/22 - 1730 13.1 1.53 1.47 14 1.53 1.47 37.0 9.78 8.26 3.68
12/1/22 - 1715 12.7 1.43 1.42 14 1.43 1.42 37.1 9.68 8.22 3.73
12/1/22 - 1700 12.1 1.43 1.37 13 1.43 1.37 36.5 9.68 8.16 3.68
12/1/22 - 1645 11.8 1.41 1.32 13 1.41 1.32 36.2 9.66 8.12 3.58
12/1/22 - 1630 11.2 1.33 1.26 12 1.33 1.26 35.1 9.58 8.06 3.58
12/1/22 - 1615 10.4 1.21 1.21 12 1.21 1.21 35.1 9.46 8.01 3.63
12/1/22 - 1600 10.2 1.21 1.15 11 1.21 1.15 34.2 9.46 7.95 3.53
12/1/22 - 1545 9.6 1.15 1.10 11 1.15 1.10 34.2 9.40 7.89 3.38
12/1/22 - 1530 9.0 1.07 1.04 10 1.07 1.04 33.3 9.32 7.83 3.43
12/1/22 - 1515 8.5 0.94 0.98 10 0.94 0.98 32.8 9.19 7.78 3.28
12/1/22 - 1500 7.5 0.94 0.93 9 0.94 0.93 31.8 9.19 7.73 3.33
12/1/22 - 1445 7.2 0.93 0.87 8 0.93 0.87 31.2 9.18 7.67 3.14
12/1/22 - 1430 6.7 0.83 0.82 8 0.83 0.82 31.0 9.08 7.61 3.24
12/1/22 - 1415 6.1 0.71 0.76 7 0.71 0.76 30.8 8.96 7.55 3.19
12/1/22 - 1400 5.8 0.70 0.71 7 0.70 0.71 29.3 8.95 7.50 3.14
12/1/22 - 1345 5.4 0.66 0.65 6 0.66 0.65 30.0 8.91 7.45 3.09
12/1/22 - 1330 5.2 0.57 0.61 6 0.57 0.61 29.8 8.82 7.41 2.99
12/1/22 - 1315 4.8 0.57 0.57 6 0.57 0.57 29.5 8.82 7.36 3.09
12/1/22 - 1300 4.5 0.53 0.54 6 0.53 0.54 29.2 8.78 7.33 2.99
12/1/22 - 1245 4.3 0.48 0.51 5 0.48 0.51 29.1 8.73 7.31 2.99
12/1/22 - 1230 4.1 0.48 0.49 5 0.48 0.49 28.8 8.73 7.28 2.94
12/1/22 - 1215 3.8 0.43 0.46 5 0.43 0.46 28.7 8.68 7.25 2.99
12/1/22 - 1200 3.7 0.43 0.43 5 0.43 0.43 27.1 8.68 7.23 2.94
12/1/22 - 1145 3.4 0.41 0.41 4 0.41 0.41 28.1 8.66 7.20 2.94
12/1/22 - 1130 3.4 0.40 0.40 5 0.40 0.40 28.3 8.65 7.19 2.89
12/1/22 - 1115 3.4 0.38 0.38 4 0.38 0.38 28.0 8.63 7.18 2.89
12/1/22 - 1100 3.1 0.35 0.36 4 0.35 0.36 27.3 8.60 7.16 2.89
12/1/22 - 1045 2.9 0.34 0.34 4 0.34 0.34 27.7 8.59 7.14 2.89
12/1/22 - 1030 2.2 0.30 0.32 4 0.30 0.32 26.7 8.55 7.12 2.84
12/1/22 - 1015 2.0 0.29 0.30 3 0.29 0.30 26.1 8.54 7.10 2.80
12/1/22 - 1000 2.0 0.26 0.28 3 0.26 0.28 26.9 8.51 7.08 2.80
12/1/22 - 0945 1.7 0.23 0.26 3 0.23 0.26 26.6 8.48 7.06 2.89
12/1/22 - 0930 1.2 0.22 0.23 2 0.22 0.23 26.4 8.47 7.02 2.75
12/1/22 - 0915 0.6 0.18 0.19 2 0.18 0.19 25.4 8.43 6.99 2.75
12/1/22 - 0900 0.3 0.15 0.17 1 0.15 0.17 25.3 8.40 6.96 2.75
12/1/22 - 0845 0.2 0.13 0.15 1 0.13 0.15 25.4 8.38 6.94 2.75
12/1/22 - 0830 0.1 0.10 0.13 1 0.10 0.13 25.1 8.35 6.93 2.75
12/1/22 - 0815 0.0 0.10 0.12 1 0.10 0.12 25.1 8.35 6.91 2.70
12/1/22 - 0800 0.0 0.08 0.10 0 0.08 0.10 24.8 8.33 6.90 2.65
12/1/22 - 0745 0.0 0.06 0.08 0 0.06 0.08 24.6 8.31 6.88 2.70
12/1/22 - 0730 0.0 0.06 0.08 0 0.06 0.08 24.6 8.31 6.87 2.70
12/1/22 - 0715 0.0 0.05 0.07 0 0.05 0.07 24.4 8.30 6.86 2.70
12/1/22 - 0700 0.1 0.04 0.06 0 0.04 0.06 24.3 8.29 6.86 2.65
12/1/22 - 0645 0.1 0.02 0.05 0 0.02 0.05 24.2 8.27 6.84 2.65
12/1/22 - 0630 0.0 0.01 0.03 0 0.01 0.03 24.2 8.26 6.83 2.65
12/1/22 - 0615 0.0 0.00 0.01 0 0.00 0.01 24.1 8.25 6.81 2.65
12/1/22 - 0600 0.0 0.00 0.00 0 0.00 0.00 23.9 8.25 6.79 2.65
12/1/22 - 0545 0.0 0.00 0.00 0 0.00 0.00 23.7 8.25 6.79 2.60
12/1/22 - 0530 0.0 0.00 0.00 0 0.00 0.00 23.7 8.25 6.79 2.70
12/1/22 - 0515 0.0 0.00 0.00 0 0.00 0.00 23.8 8.25 6.79 2.65
12/1/22 - 0500 0.0 0.00 0.00 0 0.00 0.00 23.6 8.25 6.79 2.65
12/1/22 - 0445 0.0 0.00 0.00 0 0.00 0.00 23.7 8.25 6.79 2.60
12/1/22 - 0430 0.0 0.00 0.00 0 0.00 0.00 23.6 8.25 6.79 2.65
12/1/22 - 0415 0.0 0.00 0.00 0 0.00 0.00 23.6 8.25 6.79 2.65
12/1/22 - 0400 0.0 0.00 0.00 0 0.00 0.00 23.7 8.25 6.79 2.65
12/1/22 - 0345 0.0 0.00 0.00 0 0.00 0.00 23.6 8.25 6.79 2.65
12/1/22 - 0330 0.0 0.00 0.00 0 0.00 0.00 23.7 8.25 6.79 2.70
12/1/22 - 0315 0.0 0.00 0.00 0 0.00 0.00 23.5 8.25 6.79 2.70
12/1/22 - 0300 0.0 0.00 0.00 0 0.00 0.00 23.6 8.25 6.79 2.65
12/1/22 - 0245 0.0 0.00 0.00 0 0.00 0.00 23.6 8.25 6.79 2.65
12/1/22 - 0230 0.0 0.00 0.00 0 0.00 0.00 23.6 8.25 6.79 2.65
12/1/22 - 0215 0.0 0.00 0.00 0 0.00 0.00 23.7 8.25 6.79 2.70
12/1/22 - 0200 0.0 0.00 0.00 0 0.00 0.00 23.6 8.25 6.79 2.60
12/1/22 - 0145 0.0 0.00 0.00 0 0.00 0.00 23.6 8.25 6.79 2.65
12/1/22 - 0130 0.0 0.00 0.00 0 0.00 0.00 23.7 8.25 6.79 2.75
12/1/22 - 0115 0.0 0.00 0.00 0 0.00 0.00 23.7 8.25 6.79 2.70
12/1/22 - 0100 0.0 0.00 0.00 0 0.00 0.00 23.8 8.25 6.79 2.70
12/1/22 - 0045 0.0 0.00 0.00 0 0.00 0.00 23.6 8.25 6.79 2.65
12/1/22 - 0030 0.0 0.00 0.00 0 0.00 0.00 23.7 8.25 6.79 2.60
12/1/22 - 0015 0.0 0.00 0.00 0 0.00 0.00 23.7 8.25 6.79 2.70
12/1/22 - 0000 0.0 0.00 0.00 0 8.19 6.73 23.6 8.25 6.79 2.70
11/30/22 - 2345 0.0 0.00 0.00 0 8.19 6.73 23.7 8.25 6.79 2.70
11/30/22 - 2330 0.0 0.00 0.00 0 8.19 6.73 23.8 8.25 6.79 2.70
11/30/22 - 2315 0.0 0.00 0.00 0 8.19 6.73 23.8 8.25 6.79 2.75
11/30/22 - 2300 0.0 0.00 0.00 0 8.19 6.73 23.7 8.25 6.79 2.75
11/30/22 - 2245 0.0 0.00 0.00 0 8.19 6.73 23.6 8.25 6.79 2.75
11/30/22 - 2230 0.0 0.00 0.00 0 8.19 6.73 23.7 8.25 6.79 2.60
11/30/22 - 2215 0.0 0.00 0.00 0 8.19 6.73 23.7 8.25 6.79 2.75
Max 18.8 2.37 2.37 23 8.19 6.73 45.8 10.62 9.16 4.71
Min 0.0 0.00 0.00 0 0.00 0.00 23.5 8.25 6.79 2.60